sensor_id;sensor_type;location;lat;lon;timestamp;P1;durP1;ratioP1;P2;durP2;ratioP2
39264;SDS011;42646;51.910;7.724;2022-12-26T00:01:12;11.82;;;8.05;;
39264;SDS011;42646;51.910;7.724;2022-12-26T00:03:41;11.77;;;8.60;;
39264;SDS011;42646;51.910;7.724;2022-12-26T00:06:12;12.88;;;8.40;;
39264;SDS011;42646;51.910;7.724;2022-12-26T00:08:41;10.65;;;8.20;;
39264;SDS011;42646;51.910;7.724;2022-12-26T00:11:09;11.23;;;8.35;;
39264;SDS011;42646;51.910;7.724;2022-12-26T00:13:38;11.02;;;8.57;;
39264;SDS011;42646;51.910;7.724;2022-12-26T00:16:07;11.35;;;8.43;;
39264;SDS011;42646;51.910;7.724;2022-12-26T00:18:37;10.32;;;8.38;;
39264;SDS011;42646;51.910;7.724;2022-12-26T00:21:06;10.70;;;8.50;;
39264;SDS011;42646;51.910;7.724;2022-12-26T00:23:34;10.88;;;8.65;;
39264;SDS011;42646;51.910;7.724;2022-12-26T00:26:03;9.77;;;8.25;;
39264;SDS011;42646;51.910;7.724;2022-12-26T00:28:31;11.48;;;9.13;;
39264;SDS011;42646;51.910;7.724;2022-12-26T00:31:02;10.63;;;8.80;;
39264;SDS011;42646;51.910;7.724;2022-12-26T00:33:30;10.40;;;8.50;;
39264;SDS011;42646;51.910;7.724;2022-12-26T00:36:01;10.48;;;9.20;;
39264;SDS011;42646;51.910;7.724;2022-12-26T00:38:30;11.38;;;9.02;;
39264;SDS011;42646;51.910;7.724;2022-12-26T00:40:58;9.75;;;8.40;;
39264;SDS011;42646;51.910;7.724;2022-12-26T00:43:25;12.05;;;9.18;;
39264;SDS011;42646;51.910;7.724;2022-12-26T00:45:53;11.20;;;8.65;;
39264;SDS011;42646;51.910;7.724;2022-12-26T00:48:21;10.57;;;8.77;;
39264;SDS011;42646;51.910;7.724;2022-12-26T00:50:50;12.05;;;8.95;;
39264;SDS011;42646;51.910;7.724;2022-12-26T00:53:19;11.13;;;8.98;;
39264;SDS011;42646;51.910;7.724;2022-12-26T00:55:48;11.05;;;9.35;;
39264;SDS011;42646;51.910;7.724;2022-12-26T00:58:20;10.98;;;8.55;;
39264;SDS011;42646;51.910;7.724;2022-12-26T01:00:49;11.23;;;9.50;;
39264;SDS011;42646;51.910;7.724;2022-12-26T01:03:18;11.38;;;9.25;;
39264;SDS011;42646;51.910;7.724;2022-12-26T01:05:46;11.70;;;9.05;;
39264;SDS011;42646;51.910;7.724;2022-12-26T01:08:16;12.18;;;9.73;;
39264;SDS011;42646;51.910;7.724;2022-12-26T01:10:51;11.93;;;9.50;;
39264;SDS011;42646;51.910;7.724;2022-12-26T01:13:20;12.25;;;9.15;;
39264;SDS011;42646;51.910;7.724;2022-12-26T01:15:49;12.00;;;9.90;;
39264;SDS011;42646;51.910;7.724;2022-12-26T01:18:18;11.77;;;9.40;;
39264;SDS011;42646;51.910;7.724;2022-12-26T01:20:47;11.00;;;9.38;;
39264;SDS011;42646;51.910;7.724;2022-12-26T01:23:15;12.23;;;10.32;;
39264;SDS011;42646;51.910;7.724;2022-12-26T01:25:43;13.10;;;10.52;;
39264;SDS011;42646;51.910;7.724;2022-12-26T01:28:32;11.90;;;9.48;;
39264;SDS011;42646;51.910;7.724;2022-12-26T01:31:01;11.90;;;9.50;;
39264;SDS011;42646;51.910;7.724;2022-12-26T01:33:55;11.30;;;9.82;;
39264;SDS011;42646;51.910;7.724;2022-12-26T01:36:22;11.88;;;9.85;;
39264;SDS011;42646;51.910;7.724;2022-12-26T01:38:50;12.80;;;10.18;;
39264;SDS011;42646;51.910;7.724;2022-12-26T01:41:18;12.35;;;10.00;;
39264;SDS011;42646;51.910;7.724;2022-12-26T01:47:17;12.45;;;9.77;;
39264;SDS011;42646;51.910;7.724;2022-12-26T01:49:48;11.50;;;10.30;;
39264;SDS011;42646;51.910;7.724;2022-12-26T01:52:20;14.70;;;10.73;;
39264;SDS011;42646;51.910;7.724;2022-12-26T01:54:54;12.55;;;11.07;;
39264;SDS011;42646;51.910;7.724;2022-12-26T01:57:26;13.30;;;10.70;;
39264;SDS011;42646;51.910;7.724;2022-12-26T01:59:56;12.70;;;10.93;;
39264;SDS011;42646;51.910;7.724;2022-12-26T02:05:22;14.07;;;11.00;;
39264;SDS011;42646;51.910;7.724;2022-12-26T02:08:02;13.57;;;11.32;;
39264;SDS011;42646;51.910;7.724;2022-12-26T02:10:32;14.37;;;10.80;;
39264;SDS011;42646;51.910;7.724;2022-12-26T02:13:05;13.93;;;11.38;;
39264;SDS011;42646;51.910;7.724;2022-12-26T02:15:33;13.90;;;11.65;;
39264;SDS011;42646;51.910;7.724;2022-12-26T02:18:03;14.25;;;11.75;;
39264;SDS011;42646;51.910;7.724;2022-12-26T02:20:32;16.30;;;12.40;;
39264;SDS011;42646;51.910;7.724;2022-12-26T02:26:29;16.17;;;12.63;;
39264;SDS011;42646;51.910;7.724;2022-12-26T02:32:26;14.43;;;12.15;;
39264;SDS011;42646;51.910;7.724;2022-12-26T02:35:20;13.77;;;12.10;;
39264;SDS011;42646;51.910;7.724;2022-12-26T02:37:58;15.10;;;12.63;;
39264;SDS011;42646;51.910;7.724;2022-12-26T02:40:40;15.35;;;13.10;;
39264;SDS011;42646;51.910;7.724;2022-12-26T02:43:20;16.52;;;13.45;;
39264;SDS011;42646;51.910;7.724;2022-12-26T02:45:56;14.50;;;12.25;;
39264;SDS011;42646;51.910;7.724;2022-12-26T02:48:53;15.68;;;12.75;;
39264;SDS011;42646;51.910;7.724;2022-12-26T02:51:30;16.02;;;13.07;;
39264;SDS011;42646;51.910;7.724;2022-12-26T02:54:26;15.48;;;12.90;;
39264;SDS011;42646;51.910;7.724;2022-12-26T03:00:05;15.05;;;12.35;;
39264;SDS011;42646;51.910;7.724;2022-12-26T03:02:57;17.45;;;13.70;;
39264;SDS011;42646;51.910;7.724;2022-12-26T03:05:50;17.45;;;13.77;;
39264;SDS011;42646;51.910;7.724;2022-12-26T03:08:47;16.10;;;13.20;;
39264;SDS011;42646;51.910;7.724;2022-12-26T03:11:39;18.88;;;13.68;;
39264;SDS011;42646;51.910;7.724;2022-12-26T03:14:29;16.40;;;12.93;;
39264;SDS011;42646;51.910;7.724;2022-12-26T03:17:04;15.32;;;12.73;;
39264;SDS011;42646;51.910;7.724;2022-12-26T03:22:29;17.33;;;13.60;;
39264;SDS011;42646;51.910;7.724;2022-12-26T03:28:23;16.42;;;12.48;;
39264;SDS011;42646;51.910;7.724;2022-12-26T03:30:52;16.45;;;13.05;;
39264;SDS011;42646;51.910;7.724;2022-12-26T03:33:23;15.82;;;12.65;;
39264;SDS011;42646;51.910;7.724;2022-12-26T03:36:12;15.93;;;12.68;;
39264;SDS011;42646;51.910;7.724;2022-12-26T03:38:46;16.92;;;12.73;;
39264;SDS011;42646;51.910;7.724;2022-12-26T03:41:25;16.38;;;13.07;;
39264;SDS011;42646;51.910;7.724;2022-12-26T03:44:19;16.73;;;12.82;;
39264;SDS011;42646;51.910;7.724;2022-12-26T03:47:20;16.13;;;12.38;;
39264;SDS011;42646;51.910;7.724;2022-12-26T03:50:14;16.67;;;12.82;;
39264;SDS011;42646;51.910;7.724;2022-12-26T03:53:15;17.85;;;12.70;;
39264;SDS011;42646;51.910;7.724;2022-12-26T03:56:07;14.98;;;11.85;;
39264;SDS011;42646;51.910;7.724;2022-12-26T03:59:00;15.98;;;12.20;;
39264;SDS011;42646;51.910;7.724;2022-12-26T04:01:51;16.58;;;12.48;;
39264;SDS011;42646;51.910;7.724;2022-12-26T04:04:38;16.92;;;12.68;;
39264;SDS011;42646;51.910;7.724;2022-12-26T04:07:29;15.25;;;12.07;;
39264;SDS011;42646;51.910;7.724;2022-12-26T04:10:24;16.08;;;12.70;;
39264;SDS011;42646;51.910;7.724;2022-12-26T04:13:44;16.67;;;12.73;;
39264;SDS011;42646;51.910;7.724;2022-12-26T04:16:37;16.58;;;12.63;;
39264;SDS011;42646;51.910;7.724;2022-12-26T04:19:34;16.17;;;12.52;;
39264;SDS011;42646;51.910;7.724;2022-12-26T04:22:22;15.07;;;11.82;;
39264;SDS011;42646;51.910;7.724;2022-12-26T04:25:14;15.38;;;11.85;;
39264;SDS011;42646;51.910;7.724;2022-12-26T04:28:17;15.38;;;11.60;;
39264;SDS011;42646;51.910;7.724;2022-12-26T04:31:08;15.25;;;11.85;;
39264;SDS011;42646;51.910;7.724;2022-12-26T04:33:58;15.20;;;11.73;;
39264;SDS011;42646;51.910;7.724;2022-12-26T04:36:48;17.08;;;11.73;;
39264;SDS011;42646;51.910;7.724;2022-12-26T04:39:36;15.80;;;12.07;;
39264;SDS011;42646;51.910;7.724;2022-12-26T04:42:25;15.75;;;11.63;;
39264;SDS011;42646;51.910;7.724;2022-12-26T04:45:11;16.67;;;12.20;;
39264;SDS011;42646;51.910;7.724;2022-12-26T04:47:41;16.05;;;12.23;;
39264;SDS011;42646;51.910;7.724;2022-12-26T04:50:29;16.13;;;11.95;;
39264;SDS011;42646;51.910;7.724;2022-12-26T04:52:56;16.00;;;11.50;;
39264;SDS011;42646;51.910;7.724;2022-12-26T04:55:27;14.75;;;11.00;;
39264;SDS011;42646;51.910;7.724;2022-12-26T04:57:56;14.57;;;10.80;;
39264;SDS011;42646;51.910;7.724;2022-12-26T05:00:24;15.13;;;11.73;;
39264;SDS011;42646;51.910;7.724;2022-12-26T05:02:55;14.35;;;10.73;;
39264;SDS011;42646;51.910;7.724;2022-12-26T05:05:46;14.07;;;10.50;;
39264;SDS011;42646;51.910;7.724;2022-12-26T05:08:36;13.13;;;10.05;;
39264;SDS011;42646;51.910;7.724;2022-12-26T05:11:22;13.82;;;9.55;;
39264;SDS011;42646;51.910;7.724;2022-12-26T05:13:51;12.52;;;9.40;;
39264;SDS011;42646;51.910;7.724;2022-12-26T05:16:19;14.20;;;9.90;;
39264;SDS011;42646;51.910;7.724;2022-12-26T05:19:07;12.20;;;9.48;;
39264;SDS011;42646;51.910;7.724;2022-12-26T05:21:54;13.90;;;10.02;;
39264;SDS011;42646;51.910;7.724;2022-12-26T05:24:40;12.85;;;9.68;;
39264;SDS011;42646;51.910;7.724;2022-12-26T05:27:26;13.65;;;10.05;;
39264;SDS011;42646;51.910;7.724;2022-12-26T05:30:17;13.60;;;10.13;;
39264;SDS011;42646;51.910;7.724;2022-12-26T05:32:45;13.50;;;9.85;;
39264;SDS011;42646;51.910;7.724;2022-12-26T05:35:32;13.65;;;10.57;;
39264;SDS011;42646;51.910;7.724;2022-12-26T05:38:01;14.25;;;10.35;;
39264;SDS011;42646;51.910;7.724;2022-12-26T05:40:29;13.43;;;10.05;;
39264;SDS011;42646;51.910;7.724;2022-12-26T05:42:58;14.38;;;10.88;;
39264;SDS011;42646;51.910;7.724;2022-12-26T05:45:53;12.32;;;9.77;;
39264;SDS011;42646;51.910;7.724;2022-12-26T05:48:23;13.23;;;9.90;;
39264;SDS011;42646;51.910;7.724;2022-12-26T05:50:52;14.55;;;9.90;;
39264;SDS011;42646;51.910;7.724;2022-12-26T05:53:26;12.00;;;9.48;;
39264;SDS011;42646;51.910;7.724;2022-12-26T05:55:55;12.55;;;9.88;;
39264;SDS011;42646;51.910;7.724;2022-12-26T05:58:31;12.30;;;10.07;;
39264;SDS011;42646;51.910;7.724;2022-12-26T06:01:07;13.38;;;9.80;;
39264;SDS011;42646;51.910;7.724;2022-12-26T06:04:02;12.85;;;9.65;;
39264;SDS011;42646;51.910;7.724;2022-12-26T06:06:31;11.68;;;9.00;;
39264;SDS011;42646;51.910;7.724;2022-12-26T06:09:03;12.38;;;9.18;;
39264;SDS011;42646;51.910;7.724;2022-12-26T06:11:30;11.85;;;9.63;;
39264;SDS011;42646;51.910;7.724;2022-12-26T06:13:58;12.65;;;10.25;;
39264;SDS011;42646;51.910;7.724;2022-12-26T06:16:27;12.73;;;9.65;;
39264;SDS011;42646;51.910;7.724;2022-12-26T06:18:58;11.82;;;9.75;;
39264;SDS011;42646;51.910;7.724;2022-12-26T06:21:25;12.00;;;9.48;;
39264;SDS011;42646;51.910;7.724;2022-12-26T06:23:55;12.18;;;9.52;;
39264;SDS011;42646;51.910;7.724;2022-12-26T06:26:24;11.48;;;9.30;;
39264;SDS011;42646;51.910;7.724;2022-12-26T06:28:53;11.18;;;9.27;;
39264;SDS011;42646;51.910;7.724;2022-12-26T06:31:22;10.50;;;8.85;;
39264;SDS011;42646;51.910;7.724;2022-12-26T06:33:53;12.32;;;8.93;;
39264;SDS011;42646;51.910;7.724;2022-12-26T06:38:52;11.20;;;8.68;;
39264;SDS011;42646;51.910;7.724;2022-12-26T06:41:23;10.10;;;8.30;;
39264;SDS011;42646;51.910;7.724;2022-12-26T06:43:52;10.93;;;8.43;;
39264;SDS011;42646;51.910;7.724;2022-12-26T06:46:21;10.20;;;8.40;;
39264;SDS011;42646;51.910;7.724;2022-12-26T06:48:51;9.13;;;7.93;;
39264;SDS011;42646;51.910;7.724;2022-12-26T06:51:20;11.32;;;8.30;;
39264;SDS011;42646;51.910;7.724;2022-12-26T06:53:51;9.38;;;7.68;;
39264;SDS011;42646;51.910;7.724;2022-12-26T06:56:21;9.63;;;7.82;;
39264;SDS011;42646;51.910;7.724;2022-12-26T06:58:54;8.93;;;7.30;;
39264;SDS011;42646;51.910;7.724;2022-12-26T07:01:24;9.32;;;7.47;;
39264;SDS011;42646;51.910;7.724;2022-12-26T07:03:53;9.77;;;8.15;;
39264;SDS011;42646;51.910;7.724;2022-12-26T07:06:22;9.82;;;8.00;;
39264;SDS011;42646;51.910;7.724;2022-12-26T07:08:52;10.10;;;7.82;;
39264;SDS011;42646;51.910;7.724;2022-12-26T07:11:25;9.35;;;7.85;;
39264;SDS011;42646;51.910;7.724;2022-12-26T07:13:56;8.45;;;7.30;;
39264;SDS011;42646;51.910;7.724;2022-12-26T07:16:24;8.52;;;7.25;;
39264;SDS011;42646;51.910;7.724;2022-12-26T07:18:53;8.80;;;7.57;;
39264;SDS011;42646;51.910;7.724;2022-12-26T07:21:23;8.63;;;7.35;;
39264;SDS011;42646;51.910;7.724;2022-12-26T07:23:52;8.15;;;6.95;;
39264;SDS011;42646;51.910;7.724;2022-12-26T07:26:19;7.85;;;6.88;;
39264;SDS011;42646;51.910;7.724;2022-12-26T07:28:49;9.00;;;7.40;;
39264;SDS011;42646;51.910;7.724;2022-12-26T07:31:19;9.07;;;7.45;;
39264;SDS011;42646;51.910;7.724;2022-12-26T07:33:47;8.77;;;7.78;;
39264;SDS011;42646;51.910;7.724;2022-12-26T07:36:15;8.85;;;7.88;;
39264;SDS011;42646;51.910;7.724;2022-12-26T07:38:43;10.27;;;8.52;;
39264;SDS011;42646;51.910;7.724;2022-12-26T07:41:11;11.27;;;9.88;;
39264;SDS011;42646;51.910;7.724;2022-12-26T07:44:03;13.77;;;11.80;;
39264;SDS011;42646;51.910;7.724;2022-12-26T07:46:32;13.85;;;11.75;;
39264;SDS011;42646;51.910;7.724;2022-12-26T07:49:00;13.90;;;11.50;;
39264;SDS011;42646;51.910;7.724;2022-12-26T07:51:28;15.05;;;12.40;;
39264;SDS011;42646;51.910;7.724;2022-12-26T07:53:56;14.27;;;11.82;;
39264;SDS011;42646;51.910;7.724;2022-12-26T07:56:23;16.23;;;13.00;;
39264;SDS011;42646;51.910;7.724;2022-12-26T07:58:53;15.93;;;13.20;;
39264;SDS011;42646;51.910;7.724;2022-12-26T08:01:22;15.75;;;12.80;;
39264;SDS011;42646;51.910;7.724;2022-12-26T08:03:51;15.35;;;12.48;;
39264;SDS011;42646;51.910;7.724;2022-12-26T08:06:19;15.82;;;12.48;;
39264;SDS011;42646;51.910;7.724;2022-12-26T08:08:47;15.30;;;11.88;;
39264;SDS011;42646;51.910;7.724;2022-12-26T08:11:17;13.57;;;11.15;;
39264;SDS011;42646;51.910;7.724;2022-12-26T08:13:46;13.35;;;11.05;;
39264;SDS011;42646;51.910;7.724;2022-12-26T08:16:15;13.48;;;10.63;;
39264;SDS011;42646;51.910;7.724;2022-12-26T08:21:39;13.90;;;10.45;;
39264;SDS011;42646;51.910;7.724;2022-12-26T08:24:07;13.63;;;10.40;;
39264;SDS011;42646;51.910;7.724;2022-12-26T08:26:34;13.55;;;9.57;;
39264;SDS011;42646;51.910;7.724;2022-12-26T08:31:55;11.70;;;9.00;;
39264;SDS011;42646;51.910;7.724;2022-12-26T08:34:24;12.90;;;8.88;;
39264;SDS011;42646;51.910;7.724;2022-12-26T08:36:52;11.68;;;9.25;;
39264;SDS011;42646;51.910;7.724;2022-12-26T08:39:19;10.70;;;7.90;;
39264;SDS011;42646;51.910;7.724;2022-12-26T08:41:48;11.25;;;7.68;;
39264;SDS011;42646;51.910;7.724;2022-12-26T08:44:16;8.65;;;6.80;;
39264;SDS011;42646;51.910;7.724;2022-12-26T08:46:53;9.43;;;7.35;;
39264;SDS011;42646;51.910;7.724;2022-12-26T08:49:21;8.70;;;7.40;;
39264;SDS011;42646;51.910;7.724;2022-12-26T08:51:50;9.07;;;6.75;;
39264;SDS011;42646;51.910;7.724;2022-12-26T08:54:20;9.18;;;6.45;;
39264;SDS011;42646;51.910;7.724;2022-12-26T08:56:53;9.75;;;6.28;;
39264;SDS011;42646;51.910;7.724;2022-12-26T08:59:23;9.35;;;5.93;;
39264;SDS011;42646;51.910;7.724;2022-12-26T09:01:50;8.32;;;6.35;;
39264;SDS011;42646;51.910;7.724;2022-12-26T09:04:21;8.30;;;5.72;;
39264;SDS011;42646;51.910;7.724;2022-12-26T09:06:50;6.78;;;4.80;;
39264;SDS011;42646;51.910;7.724;2022-12-26T09:09:18;7.15;;;4.70;;
39264;SDS011;42646;51.910;7.724;2022-12-26T09:11:46;6.47;;;4.53;;
39264;SDS011;42646;51.910;7.724;2022-12-26T09:14:14;6.50;;;4.50;;
39264;SDS011;42646;51.910;7.724;2022-12-26T09:16:42;6.80;;;4.18;;
39264;SDS011;42646;51.910;7.724;2022-12-26T09:25:25;7.60;;;3.33;;
39264;SDS011;42646;51.910;7.724;2022-12-26T09:27:53;5.40;;;3.08;;
39264;SDS011;42646;51.910;7.724;2022-12-26T09:30:26;5.43;;;3.25;;
39264;SDS011;42646;51.910;7.724;2022-12-26T09:32:54;6.03;;;3.30;;
39264;SDS011;42646;51.910;7.724;2022-12-26T09:35:46;5.00;;;2.95;;
39264;SDS011;42646;51.910;7.724;2022-12-26T09:38:15;4.72;;;2.60;;
39264;SDS011;42646;51.910;7.724;2022-12-26T09:40:46;6.35;;;2.58;;
39264;SDS011;42646;51.910;7.724;2022-12-26T09:43:24;5.38;;;2.70;;
39264;SDS011;42646;51.910;7.724;2022-12-26T09:46:04;7.22;;;2.60;;
39264;SDS011;42646;51.910;7.724;2022-12-26T09:49:05;4.22;;;2.17;;
39264;SDS011;42646;51.910;7.724;2022-12-26T09:51:37;4.45;;;2.20;;
39264;SDS011;42646;51.910;7.724;2022-12-26T09:54:10;5.93;;;2.50;;
39264;SDS011;42646;51.910;7.724;2022-12-26T09:56:44;6.72;;;2.40;;
39264;SDS011;42646;51.910;7.724;2022-12-26T09:59:39;4.30;;;2.10;;
39264;SDS011;42646;51.910;7.724;2022-12-26T10:02:14;8.48;;;2.90;;
39264;SDS011;42646;51.910;7.724;2022-12-26T10:04:45;8.38;;;2.35;;
39264;SDS011;42646;51.910;7.724;2022-12-26T10:07:15;8.07;;;3.17;;
39264;SDS011;42646;51.910;7.724;2022-12-26T10:09:51;5.18;;;2.67;;
39264;SDS011;42646;51.910;7.724;2022-12-26T10:12:34;6.40;;;2.55;;
39264;SDS011;42646;51.910;7.724;2022-12-26T10:15:10;5.22;;;2.65;;
39264;SDS011;42646;51.910;7.724;2022-12-26T10:17:46;7.18;;;2.50;;
39264;SDS011;42646;51.910;7.724;2022-12-26T10:20:47;4.05;;;2.50;;
39264;SDS011;42646;51.910;7.724;2022-12-26T10:23:30;5.53;;;2.35;;
39264;SDS011;42646;51.910;7.724;2022-12-26T10:26:04;6.82;;;2.55;;
39264;SDS011;42646;51.910;7.724;2022-12-26T10:28:37;6.45;;;2.97;;
39264;SDS011;42646;51.910;7.724;2022-12-26T10:31:11;6.13;;;3.45;;
39264;SDS011;42646;51.910;7.724;2022-12-26T10:33:44;5.57;;;3.03;;
39264;SDS011;42646;51.910;7.724;2022-12-26T10:36:26;5.93;;;2.92;;
39264;SDS011;42646;51.910;7.724;2022-12-26T10:38:59;5.70;;;3.35;;
39264;SDS011;42646;51.910;7.724;2022-12-26T10:41:33;5.32;;;2.97;;
39264;SDS011;42646;51.910;7.724;2022-12-26T10:44:08;4.85;;;2.80;;
39264;SDS011;42646;51.910;7.724;2022-12-26T10:46:59;6.38;;;2.78;;
39264;SDS011;42646;51.910;7.724;2022-12-26T10:49:37;4.97;;;2.55;;
39264;SDS011;42646;51.910;7.724;2022-12-26T10:52:06;5.30;;;2.47;;
39264;SDS011;42646;51.910;7.724;2022-12-26T10:54:36;4.35;;;2.42;;
39264;SDS011;42646;51.910;7.724;2022-12-26T10:57:06;5.55;;;2.50;;
39264;SDS011;42646;51.910;7.724;2022-12-26T10:59:37;5.50;;;2.60;;
39264;SDS011;42646;51.910;7.724;2022-12-26T11:02:12;5.55;;;2.50;;
39264;SDS011;42646;51.910;7.724;2022-12-26T11:04:59;6.00;;;2.58;;
39264;SDS011;42646;51.910;7.724;2022-12-26T11:07:53;4.32;;;2.13;;
39264;SDS011;42646;51.910;7.724;2022-12-26T11:10:24;6.97;;;2.72;;
39264;SDS011;42646;51.910;7.724;2022-12-26T11:12:55;7.25;;;2.50;;
39264;SDS011;42646;51.910;7.724;2022-12-26T11:15:28;5.03;;;2.28;;
39264;SDS011;42646;51.910;7.724;2022-12-26T11:18:08;4.30;;;2.10;;
39264;SDS011;42646;51.910;7.724;2022-12-26T11:20:46;5.10;;;2.13;;
39264;SDS011;42646;51.910;7.724;2022-12-26T11:26:09;7.90;;;2.50;;
39264;SDS011;42646;51.910;7.724;2022-12-26T11:31:32;4.93;;;2.08;;
39264;SDS011;42646;51.910;7.724;2022-12-26T11:34:06;3.22;;;1.85;;
39264;SDS011;42646;51.910;7.724;2022-12-26T11:36:36;5.57;;;2.28;;
39264;SDS011;42646;51.910;7.724;2022-12-26T11:39:18;5.10;;;1.80;;
39264;SDS011;42646;51.910;7.724;2022-12-26T11:41:49;5.30;;;1.80;;
39264;SDS011;42646;51.910;7.724;2022-12-26T11:44:21;3.83;;;1.83;;
39264;SDS011;42646;51.910;7.724;2022-12-26T11:46:55;4.90;;;2.10;;
39264;SDS011;42646;51.910;7.724;2022-12-26T11:49:28;5.93;;;1.80;;
39264;SDS011;42646;51.910;7.724;2022-12-26T11:52:00;4.55;;;2.00;;
39264;SDS011;42646;51.910;7.724;2022-12-26T11:54:31;4.00;;;1.80;;
39264;SDS011;42646;51.910;7.724;2022-12-26T11:57:11;7.97;;;2.03;;
39264;SDS011;42646;51.910;7.724;2022-12-26T12:02:14;5.60;;;1.98;;
39264;SDS011;42646;51.910;7.724;2022-12-26T12:04:45;6.43;;;2.25;;
39264;SDS011;42646;51.910;7.724;2022-12-26T12:07:17;4.97;;;2.10;;
39264;SDS011;42646;51.910;7.724;2022-12-26T12:09:57;4.72;;;2.45;;
39264;SDS011;42646;51.910;7.724;2022-12-26T12:12:30;6.57;;;2.30;;
39264;SDS011;42646;51.910;7.724;2022-12-26T12:15:09;5.80;;;2.22;;
39264;SDS011;42646;51.910;7.724;2022-12-26T12:17:44;4.32;;;1.90;;
39264;SDS011;42646;51.910;7.724;2022-12-26T12:20:31;4.30;;;2.00;;
39264;SDS011;42646;51.910;7.724;2022-12-26T12:23:15;4.90;;;2.00;;
39264;SDS011;42646;51.910;7.724;2022-12-26T12:26:02;3.80;;;2.00;;
39264;SDS011;42646;51.910;7.724;2022-12-26T12:31:41;5.55;;;1.95;;
39264;SDS011;42646;51.910;7.724;2022-12-26T12:34:22;6.38;;;1.80;;
39264;SDS011;42646;51.910;7.724;2022-12-26T12:37:01;5.47;;;1.70;;
39264;SDS011;42646;51.910;7.724;2022-12-26T12:39:42;4.45;;;1.75;;
39264;SDS011;42646;51.910;7.724;2022-12-26T12:42:21;4.47;;;1.48;;
39264;SDS011;42646;51.910;7.724;2022-12-26T12:45:05;4.15;;;1.50;;
39264;SDS011;42646;51.910;7.724;2022-12-26T12:47:49;4.13;;;1.40;;
39264;SDS011;42646;51.910;7.724;2022-12-26T12:50:27;4.38;;;1.60;;
39264;SDS011;42646;51.910;7.724;2022-12-26T12:53:05;4.95;;;1.60;;
39264;SDS011;42646;51.910;7.724;2022-12-26T12:55:49;3.85;;;1.52;;
39264;SDS011;42646;51.910;7.724;2022-12-26T12:58:27;4.90;;;1.73;;
39264;SDS011;42646;51.910;7.724;2022-12-26T13:01:00;4.15;;;1.80;;
39264;SDS011;42646;51.910;7.724;2022-12-26T13:03:37;5.25;;;1.77;;
39264;SDS011;42646;51.910;7.724;2022-12-26T13:06:09;5.10;;;1.80;;
39264;SDS011;42646;51.910;7.724;2022-12-26T13:08:41;4.32;;;2.03;;
39264;SDS011;42646;51.910;7.724;2022-12-26T13:11:15;6.80;;;2.03;;
39264;SDS011;42646;51.910;7.724;2022-12-26T13:13:47;4.75;;;1.90;;
39264;SDS011;42646;51.910;7.724;2022-12-26T13:16:21;3.78;;;1.90;;
39264;SDS011;42646;51.910;7.724;2022-12-26T13:18:54;5.60;;;2.25;;
39264;SDS011;42646;51.910;7.724;2022-12-26T13:21:27;7.75;;;2.50;;
39264;SDS011;42646;51.910;7.724;2022-12-26T13:23:58;6.13;;;2.97;;
39264;SDS011;42646;51.910;7.724;2022-12-26T13:26:50;7.18;;;2.38;;
39264;SDS011;42646;51.910;7.724;2022-12-26T13:29:36;7.95;;;2.10;;
39264;SDS011;42646;51.910;7.724;2022-12-26T13:32:12;7.45;;;2.25;;
39264;SDS011;42646;51.910;7.724;2022-12-26T13:34:45;8.20;;;2.40;;
39264;SDS011;42646;51.910;7.724;2022-12-26T13:40:17;5.85;;;2.00;;
39264;SDS011;42646;51.910;7.724;2022-12-26T13:42:48;6.90;;;2.05;;
39264;SDS011;42646;51.910;7.724;2022-12-26T13:45:52;10.02;;;1.83;;
39264;SDS011;42646;51.910;7.724;2022-12-26T13:54:29;9.77;;;2.17;;
39264;SDS011;42646;51.910;7.724;2022-12-26T13:59:46;7.65;;;1.80;;
39264;SDS011;42646;51.910;7.724;2022-12-26T14:05:48;10.07;;;3.00;;
39264;SDS011;42646;51.910;7.724;2022-12-26T14:08:37;9.82;;;3.40;;
39264;SDS011;42646;51.910;7.724;2022-12-26T14:11:29;7.32;;;2.40;;
39264;SDS011;42646;51.910;7.724;2022-12-26T14:14:09;5.88;;;2.15;;
39264;SDS011;42646;51.910;7.724;2022-12-26T14:16:46;7.80;;;2.10;;
39264;SDS011;42646;51.910;7.724;2022-12-26T14:19:24;7.68;;;1.90;;
39264;SDS011;42646;51.910;7.724;2022-12-26T14:22:04;4.35;;;1.80;;
39264;SDS011;42646;51.910;7.724;2022-12-26T14:24:41;7.10;;;1.90;;
39264;SDS011;42646;51.910;7.724;2022-12-26T14:27:24;4.30;;;1.90;;
39264;SDS011;42646;51.910;7.724;2022-12-26T14:30:04;7.18;;;2.17;;
39264;SDS011;42646;51.910;7.724;2022-12-26T14:32:46;7.07;;;2.00;;
39264;SDS011;42646;51.910;7.724;2022-12-26T14:35:28;7.43;;;2.15;;
39264;SDS011;42646;51.910;7.724;2022-12-26T14:38:02;6.20;;;2.20;;
39264;SDS011;42646;51.910;7.724;2022-12-26T14:40:59;5.75;;;1.90;;
39264;SDS011;42646;51.910;7.724;2022-12-26T14:43:32;4.30;;;2.00;;
39264;SDS011;42646;51.910;7.724;2022-12-26T14:49:51;8.05;;;2.25;;
39264;SDS011;42646;51.910;7.724;2022-12-26T14:58:23;6.82;;;2.15;;
39264;SDS011;42646;51.910;7.724;2022-12-26T15:01:41;4.88;;;2.40;;
39264;SDS011;42646;51.910;7.724;2022-12-26T15:04:14;7.15;;;2.10;;
39264;SDS011;42646;51.910;7.724;2022-12-26T15:12:59;9.82;;;2.78;;
39264;SDS011;42646;51.910;7.724;2022-12-26T15:15:49;4.65;;;2.20;;
39264;SDS011;42646;51.910;7.724;2022-12-26T15:18:41;8.23;;;2.80;;
39264;SDS011;42646;51.910;7.724;2022-12-26T15:30:49;6.03;;;2.10;;
39264;SDS011;42646;51.910;7.724;2022-12-26T15:33:31;6.43;;;2.15;;
39264;SDS011;42646;51.910;7.724;2022-12-26T15:36:12;8.93;;;2.35;;
39264;SDS011;42646;51.910;7.724;2022-12-26T15:38:48;5.93;;;2.40;;
39264;SDS011;42646;51.910;7.724;2022-12-26T15:41:24;6.40;;;2.28;;
39264;SDS011;42646;51.910;7.724;2022-12-26T15:44:05;5.05;;;2.10;;
39264;SDS011;42646;51.910;7.724;2022-12-26T15:46:45;5.15;;;2.22;;
39264;SDS011;42646;51.910;7.724;2022-12-26T15:49:23;6.95;;;2.20;;
39264;SDS011;42646;51.910;7.724;2022-12-26T15:52:07;6.53;;;2.70;;
39264;SDS011;42646;51.910;7.724;2022-12-26T15:57:49;7.82;;;2.90;;
39264;SDS011;42646;51.910;7.724;2022-12-26T16:00:25;6.47;;;2.53;;
39264;SDS011;42646;51.910;7.724;2022-12-26T16:03:00;8.73;;;2.40;;
39264;SDS011;42646;51.910;7.724;2022-12-26T16:05:46;9.32;;;2.25;;
39264;SDS011;42646;51.910;7.724;2022-12-26T16:11:23;5.10;;;1.80;;
39264;SDS011;42646;51.910;7.724;2022-12-26T16:13:55;8.20;;;2.35;;
39264;SDS011;42646;51.910;7.724;2022-12-26T16:19:13;5.35;;;2.05;;
39264;SDS011;42646;51.910;7.724;2022-12-26T16:21:46;7.25;;;2.45;;
39264;SDS011;42646;51.910;7.724;2022-12-26T16:24:36;8.15;;;2.40;;
39264;SDS011;42646;51.910;7.724;2022-12-26T16:27:06;7.60;;;2.17;;
39264;SDS011;42646;51.910;7.724;2022-12-26T16:29:36;6.30;;;1.95;;
39264;SDS011;42646;51.910;7.724;2022-12-26T16:32:13;6.90;;;1.95;;
39264;SDS011;42646;51.910;7.724;2022-12-26T16:34:44;7.28;;;2.10;;
39264;SDS011;42646;51.910;7.724;2022-12-26T16:37:14;7.85;;;2.40;;
39264;SDS011;42646;51.910;7.724;2022-12-26T16:42:43;4.97;;;1.83;;
39264;SDS011;42646;51.910;7.724;2022-12-26T16:45:24;6.35;;;2.33;;
39264;SDS011;42646;51.910;7.724;2022-12-26T16:47:52;6.68;;;2.10;;
39264;SDS011;42646;51.910;7.724;2022-12-26T16:50:22;8.82;;;3.28;;
39264;SDS011;42646;51.910;7.724;2022-12-26T16:53:05;7.35;;;2.25;;
39264;SDS011;42646;51.910;7.724;2022-12-26T16:55:39;11.95;;;2.60;;
39264;SDS011;42646;51.910;7.724;2022-12-26T16:58:17;8.55;;;2.60;;
39264;SDS011;42646;51.910;7.724;2022-12-26T17:01:02;6.60;;;2.60;;
39264;SDS011;42646;51.910;7.724;2022-12-26T17:03:35;6.15;;;2.25;;
39264;SDS011;42646;51.910;7.724;2022-12-26T17:06:07;7.82;;;2.30;;
39264;SDS011;42646;51.910;7.724;2022-12-26T17:08:42;9.30;;;2.67;;
39264;SDS011;42646;51.910;7.724;2022-12-26T17:11:13;5.25;;;2.05;;